CheckWX is a tool to help pilots better visualize weather data.  It is not intended as a substitute for an official pre-flight weather briefing.

21:20:58 UTC

KDUC METAR
Halliburton Field Airport
Duncan, Oklahoma, USA
Current

26 mins ago

KDUC 182055Z AUTO 03012KT 10SM OVC110 04/M09 A3034 RMK AO2 T00351089
Observed
Feb-18 @ 20:55 UTC
Wind
  • 030° at 12 KTS
Visibility
10 SM
Flight Rules
VFR
Cloud Levels
  • Overcast at 11,000' AGL
Temperature
C / 39°F
Dewpoint
-9°C / 16°F
Humidity
39%
Altimeter
30.34" Hg
Pressure
1027.42 hPa
Previous

46 mins ago

KDUC 182035Z AUTO 03011KT 10SM OVC110 03/M09 A3034 RMK AO2 T00301093
Observed
Feb-18 @ 20:35 UTC
Wind
  • 030° at 11 KTS
Visibility
10 SM
Flight Rules
VFR
Cloud Levels
  • Overcast at 11,000' AGL
Temperature
C / 37°F
Dewpoint
-9°C / 16°F
Humidity
41%
Altimeter
30.34" Hg
Pressure
1027.42 hPa
Previous

1 hour ago

KDUC 182015Z AUTO 05012KT 10SM OVC110 03/M09 A3035 RMK AO2 T00311093
Observed
Feb-18 @ 20:15 UTC
Wind
  • 050° at 12 KTS
Visibility
10 SM
Flight Rules
VFR
Cloud Levels
  • Overcast at 11,000' AGL
Temperature
C / 37°F
Dewpoint
-9°C / 16°F
Humidity
41%
Altimeter
30.35" Hg
Pressure
1027.82 hPa